Aeroporto :
LOGIN :

Iscrizione | Disclaimer

   EN    FR    IT 

 










Sommario :    VFR   VFR Marginale   IFR   IFR Intensivo   IFR Molto Intensivo
Visibilità : 
Base nubi : 
>= 8 km
>= 3000ft
5 / 8 km
1000 / 3000 ft
1500m / 5 km
500 / 1000 ft
800 / 1500m
200 / 500 ft
< 800m
< 200 ft
Simboli :   Temporali  Nebbia  Neve Forte  Precipitazioni Forti  Vento > 20 kt
SIGMETs :   Varie  Temporali  Ghiacco  Turbolenza  Onda orograficha  Ceneri Vulcaniche







- Altitudine del aeroporto : 1411 ft
- Codice IATA : ZHI


LSZG - Grenchen

ULTIMO METAR :
  • 191220Z 07008KT 9999 FEW050 26/15 Q1024 NOSIG

METARs OBSOLETI :
  • 191150Z 08008KT 9999 FEW045 26/16 Q1024 NOSIG
  • 191120Z AUTO 07007KT 040V100 CAVOK 25/13 Q1025
  • 191050Z 09007KT 9999 FEW035 25/15 Q1025 NOSIG
  • 191020Z 08008KT 050V110 9999 FEW040 24/13 Q1025 NOSIG
  • 190950Z 08005KT 9999 FEW035 23/13 Q1025 NOSIG
  • 190920Z 08006KT 050V120 9999 FEW035 23/14 Q1025 NOSIG

TAF TAF LSZG
Valido dal 19 a 12 ore il 19 a 21 ore UTC


191125Z 1912/1921 09007KT 9999 FEW035
TEMPO 1912/1918 06013KT CAVOK
ATIS : +41 32 396 96 33
Nessun NOTAM noto per questo aeroporto.



MetMap, La meteo Aeronautica in un colpo d'occhio ! - Copyright ORBIFLY Dicembre 2007 - Disclaimer

ORBIFLY MET'MAP TEAM :

Programmazione e sviluppo : Alexandra Zaïnal
Concezione e sviluppo : Baudouin d'Aumeries
Co-Programmazione e sviluppo : Marc-Olivier Méhu
Supporto tecnico e logistico : Manuel Goepfert
Aiuto per la traduzione : Arnaldo La Scala

Contatto : metmap@orbifly.com




FONTI E CREDITI :

   NOAA